sensor_id;sensor_type;location;lat;lon;timestamp;pressure;altitude;pressure_sealevel;temperature;humidity
2184;BME280;1098;48.940;8.962;2022-11-02T00:00:49;99108.06;;;8.66;100.00
2184;BME280;1098;48.940;8.962;2022-11-02T00:03:18;99101.09;;;8.43;100.00
2184;BME280;1098;48.940;8.962;2022-11-02T00:05:46;99101.91;;;8.16;100.00
2184;BME280;1098;48.940;8.962;2022-11-02T00:08:14;99096.44;;;8.03;100.00
2184;BME280;1098;48.940;8.962;2022-11-02T00:10:42;99095.81;;;8.01;100.00
2184;BME280;1098;48.940;8.962;2022-11-02T00:13:10;99099.78;;;8.05;100.00
2184;BME280;1098;48.940;8.962;2022-11-02T00:15:40;99098.75;;;8.06;100.00
2184;BME280;1098;48.940;8.962;2022-11-02T00:18:08;99096.63;;;8.01;100.00
2184;BME280;1098;48.940;8.962;2022-11-02T00:20:38;99105.41;;;8.10;100.00
2184;BME280;1098;48.940;8.962;2022-11-02T00:23:09;99099.06;;;7.96;100.00
2184;BME280;1098;48.940;8.962;2022-11-02T00:25:39;99098.34;;;8.09;100.00
2184;BME280;1098;48.940;8.962;2022-11-02T00:28:08;99103.63;;;8.23;100.00
2184;BME280;1098;48.940;8.962;2022-11-02T00:30:36;99104.28;;;8.25;100.00
2184;BME280;1098;48.940;8.962;2022-11-02T00:33:06;99103.63;;;7.96;100.00
2184;BME280;1098;48.940;8.962;2022-11-02T00:35:34;99106.56;;;8.01;100.00
2184;BME280;1098;48.940;8.962;2022-11-02T00:38:02;99096.50;;;8.09;100.00
2184;BME280;1098;48.940;8.962;2022-11-02T00:40:31;99097.94;;;8.12;100.00
2184;BME280;1098;48.940;8.962;2022-11-02T00:42:59;99093.38;;;8.06;100.00
2184;BME280;1098;48.940;8.962;2022-11-02T00:45:27;99100.03;;;8.10;100.00
2184;BME280;1098;48.940;8.962;2022-11-02T00:47:55;99100.03;;;8.10;100.00
2184;BME280;1098;48.940;8.962;2022-11-02T00:50:24;99098.84;;;8.19;100.00
2184;BME280;1098;48.940;8.962;2022-11-02T00:52:52;99087.88;;;8.48;100.00
2184;BME280;1098;48.940;8.962;2022-11-02T00:55:22;99091.56;;;8.41;100.00
2184;BME280;1098;48.940;8.962;2022-11-02T00:57:53;99087.94;;;8.61;100.00
2184;BME280;1098;48.940;8.962;2022-11-02T01:00:21;99086.63;;;8.92;100.00
2184;BME280;1098;48.940;8.962;2022-11-02T01:02:49;99088.09;;;8.53;100.00
2184;BME280;1098;48.940;8.962;2022-11-02T01:05:19;99090.16;;;8.23;100.00
2184;BME280;1098;48.940;8.962;2022-11-02T01:07:49;99088.31;;;7.68;100.00
2184;BME280;1098;48.940;8.962;2022-11-02T01:10:17;99093.34;;;7.35;100.00
2184;BME280;1098;48.940;8.962;2022-11-02T01:12:45;99091.03;;;7.32;100.00
2184;BME280;1098;48.940;8.962;2022-11-02T01:15:13;99090.84;;;7.34;100.00
2184;BME280;1098;48.940;8.962;2022-11-02T01:17:41;99085.47;;;7.34;100.00
2184;BME280;1098;48.940;8.962;2022-11-02T01:20:10;99086.03;;;7.72;100.00
2184;BME280;1098;48.940;8.962;2022-11-02T01:22:38;99087.50;;;7.74;100.00
2184;BME280;1098;48.940;8.962;2022-11-02T01:25:07;99077.94;;;7.93;100.00
2184;BME280;1098;48.940;8.962;2022-11-02T01:27:35;99080.94;;;8.05;100.00
2184;BME280;1098;48.940;8.962;2022-11-02T01:30:06;99079.78;;;8.48;100.00
2184;BME280;1098;48.940;8.962;2022-11-02T01:32:35;99079.69;;;8.35;100.00
2184;BME280;1098;48.940;8.962;2022-11-02T01:35:03;99073.59;;;8.54;100.00
2184;BME280;1098;48.940;8.962;2022-11-02T01:37:34;99070.50;;;8.57;100.00
2184;BME280;1098;48.940;8.962;2022-11-02T01:40:02;99081.84;;;8.46;100.00
2184;BME280;1098;48.940;8.962;2022-11-02T01:42:33;99072.38;;;9.11;100.00
2184;BME280;1098;48.940;8.962;2022-11-02T01:45:01;99072.84;;;8.74;100.00
2184;BME280;1098;48.940;8.962;2022-11-02T01:47:34;99065.31;;;9.17;100.00
2184;BME280;1098;48.940;8.962;2022-11-02T01:50:03;99058.25;;;9.03;100.00
2184;BME280;1098;48.940;8.962;2022-11-02T01:52:35;99042.31;;;9.14;100.00
2184;BME280;1098;48.940;8.962;2022-11-02T01:55:05;99045.09;;;8.80;100.00
2184;BME280;1098;48.940;8.962;2022-11-02T01:57:36;99031.47;;;8.94;100.00
2184;BME280;1098;48.940;8.962;2022-11-02T02:00:06;99027.13;;;8.93;100.00
2184;BME280;1098;48.940;8.962;2022-11-02T02:02:43;99027.09;;;8.87;100.00
2184;BME280;1098;48.940;8.962;2022-11-02T02:05:12;99021.09;;;8.85;100.00
2184;BME280;1098;48.940;8.962;2022-11-02T02:07:41;99020.84;;;8.80;100.00
2184;BME280;1098;48.940;8.962;2022-11-02T02:10:11;99028.78;;;8.88;100.00
2184;BME280;1098;48.940;8.962;2022-11-02T02:12:40;99019.41;;;8.77;100.00
2184;BME280;1098;48.940;8.962;2022-11-02T02:15:12;99028.72;;;8.75;100.00
2184;BME280;1098;48.940;8.962;2022-11-02T02:17:42;99022.13;;;8.84;100.00
2184;BME280;1098;48.940;8.962;2022-11-02T02:20:17;99018.75;;;8.75;100.00
2184;BME280;1098;48.940;8.962;2022-11-02T02:22:57;99012.38;;;8.83;100.00
2184;BME280;1098;48.940;8.962;2022-11-02T02:25:38;99012.81;;;8.86;100.00
2184;BME280;1098;48.940;8.962;2022-11-02T02:28:15;99006.22;;;9.09;100.00
2184;BME280;1098;48.940;8.962;2022-11-02T02:30:47;99007.06;;;9.09;100.00
2184;BME280;1098;48.940;8.962;2022-11-02T02:33:19;99008.47;;;8.99;100.00
2184;BME280;1098;48.940;8.962;2022-11-02T02:35:55;98998.78;;;9.24;100.00
2184;BME280;1098;48.940;8.962;2022-11-02T02:38:26;99003.34;;;9.23;100.00
2184;BME280;1098;48.940;8.962;2022-11-02T02:40:56;99005.56;;;9.00;100.00
2184;BME280;1098;48.940;8.962;2022-11-02T02:43:28;99006.38;;;8.94;100.00
2184;BME280;1098;48.940;8.962;2022-11-02T02:45:59;99005.56;;;9.00;100.00
2184;BME280;1098;48.940;8.962;2022-11-02T02:48:28;98998.94;;;8.96;100.00
2184;BME280;1098;48.940;8.962;2022-11-02T02:50:58;99004.78;;;9.13;100.00
2184;BME280;1098;48.940;8.962;2022-11-02T02:53:29;99001.66;;;9.09;100.00
2184;BME280;1098;48.940;8.962;2022-11-02T02:56:01;99005.19;;;9.16;100.00
2184;BME280;1098;48.940;8.962;2022-11-02T02:58:31;99002.72;;;9.48;100.00
2184;BME280;1098;48.940;8.962;2022-11-02T03:01:04;99006.66;;;9.45;100.00
2184;BME280;1098;48.940;8.962;2022-11-02T03:03:34;99000.44;;;9.64;100.00
2184;BME280;1098;48.940;8.962;2022-11-02T03:06:03;99003.56;;;9.61;100.00
2184;BME280;1098;48.940;8.962;2022-11-02T03:08:34;98998.59;;;9.52;100.00
2184;BME280;1098;48.940;8.962;2022-11-02T03:11:04;99003.53;;;9.81;100.00
2184;BME280;1098;48.940;8.962;2022-11-02T03:13:41;99002.94;;;9.33;100.00
2184;BME280;1098;48.940;8.962;2022-11-02T03:16:16;99008.94;;;9.61;100.00
2184;BME280;1098;48.940;8.962;2022-11-02T03:18:51;99001.25;;;9.85;100.00
2184;BME280;1098;48.940;8.962;2022-11-02T03:21:22;99004.78;;;9.39;100.00
2184;BME280;1098;48.940;8.962;2022-11-02T03:23:53;99000.63;;;9.83;100.00
2184;BME280;1098;48.940;8.962;2022-11-02T03:26:24;98998.78;;;9.77;100.00
2184;BME280;1098;48.940;8.962;2022-11-02T03:29:00;99000.25;;;9.46;100.00
2184;BME280;1098;48.940;8.962;2022-11-02T03:31:33;98996.53;;;9.54;100.00
2184;BME280;1098;48.940;8.962;2022-11-02T03:34:07;98999.00;;;9.49;100.00
2184;BME280;1098;48.940;8.962;2022-11-02T03:36:36;98994.56;;;10.00;100.00
2184;BME280;1098;48.940;8.962;2022-11-02T03:39:08;98995.06;;;9.45;100.00
2184;BME280;1098;48.940;8.962;2022-11-02T03:41:38;99004.63;;;9.54;100.00
2184;BME280;1098;48.940;8.962;2022-11-02T03:44:10;99010.00;;;9.34;100.00
2184;BME280;1098;48.940;8.962;2022-11-02T03:46:40;99014.75;;;9.25;100.00
2184;BME280;1098;48.940;8.962;2022-11-02T03:49:12;99015.34;;;9.08;100.00
2184;BME280;1098;48.940;8.962;2022-11-02T03:51:42;99019.94;;;9.14;100.00
2184;BME280;1098;48.940;8.962;2022-11-02T03:54:15;99032.38;;;9.21;100.00
2184;BME280;1098;48.940;8.962;2022-11-02T03:56:48;99022.66;;;9.47;100.00
2184;BME280;1098;48.940;8.962;2022-11-02T03:59:22;99028.22;;;9.12;100.00
2184;BME280;1098;48.940;8.962;2022-11-02T04:01:50;99035.66;;;9.04;100.00
2184;BME280;1098;48.940;8.962;2022-11-02T04:04:21;99034.38;;;9.00;100.00
2184;BME280;1098;48.940;8.962;2022-11-02T04:06:50;99030.06;;;9.18;100.00
2184;BME280;1098;48.940;8.962;2022-11-02T04:09:18;99031.31;;;9.09;100.00
2184;BME280;1098;48.940;8.962;2022-11-02T04:11:46;99035.09;;;9.61;100.00
2184;BME280;1098;48.940;8.962;2022-11-02T04:14:36;99012.66;;;9.14;100.00
2184;BME280;1098;48.940;8.962;2022-11-02T04:17:12;99029.25;;;9.24;100.00
2184;BME280;1098;48.940;8.962;2022-11-02T04:20:00;99028.25;;;9.32;100.00
2184;BME280;1098;48.940;8.962;2022-11-02T04:22:29;99036.50;;;9.17;100.00
2184;BME280;1098;48.940;8.962;2022-11-02T04:25:16;99039.19;;;9.11;100.00
2184;BME280;1098;48.940;8.962;2022-11-02T04:28:08;99044.00;;;9.28;100.00
2184;BME280;1098;48.940;8.962;2022-11-02T04:30:43;99044.81;;;9.22;100.00
2184;BME280;1098;48.940;8.962;2022-11-02T04:33:12;99046.22;;;9.05;100.00
2184;BME280;1098;48.940;8.962;2022-11-02T04:36:18;99042.75;;;9.24;100.00
2184;BME280;1098;48.940;8.962;2022-11-02T04:38:51;99037.78;;;9.28;100.00
2184;BME280;1098;48.940;8.962;2022-11-02T04:41:27;99033.19;;;9.22;100.00
2184;BME280;1098;48.940;8.962;2022-11-02T04:44:16;99039.41;;;9.16;100.00
2184;BME280;1098;48.940;8.962;2022-11-02T04:46:52;99048.19;;;8.77;100.00
2184;BME280;1098;48.940;8.962;2022-11-02T04:49:24;99049.78;;;8.51;100.00
2184;BME280;1098;48.940;8.962;2022-11-02T04:51:53;99054.50;;;8.97;100.00
2184;BME280;1098;48.940;8.962;2022-11-02T04:54:21;99049.47;;;8.81;100.00
2184;BME280;1098;48.940;8.962;2022-11-02T04:56:54;99060.25;;;8.81;100.00
2184;BME280;1098;48.940;8.962;2022-11-02T04:59:24;99056.84;;;9.20;100.00
2184;BME280;1098;48.940;8.962;2022-11-02T05:01:54;99058.28;;;9.09;100.00
2184;BME280;1098;48.940;8.962;2022-11-02T05:04:22;99063.47;;;9.11;100.00
2184;BME280;1098;48.940;8.962;2022-11-02T05:06:50;99065.16;;;9.25;100.00
2184;BME280;1098;48.940;8.962;2022-11-02T05:09:22;99062.25;;;8.66;100.00
2184;BME280;1098;48.940;8.962;2022-11-02T05:11:51;99063.53;;;8.76;100.00
2184;BME280;1098;48.940;8.962;2022-11-02T05:14:19;99069.13;;;8.75;100.00
2184;BME280;1098;48.940;8.962;2022-11-02T05:16:47;99073.78;;;8.46;100.00
2184;BME280;1098;48.940;8.962;2022-11-02T05:19:16;99071.28;;;8.99;100.00
2184;BME280;1098;48.940;8.962;2022-11-02T05:21:44;99073.84;;;8.59;100.00
2184;BME280;1098;48.940;8.962;2022-11-02T05:24:12;99066.50;;;8.88;100.00
2184;BME280;1098;48.940;8.962;2022-11-02T05:26:41;99065.28;;;8.97;100.00
2184;BME280;1098;48.940;8.962;2022-11-02T05:29:09;99061.81;;;9.23;100.00
2184;BME280;1098;48.940;8.962;2022-11-02T05:31:37;99062.47;;;9.32;100.00
2184;BME280;1098;48.940;8.962;2022-11-02T05:34:05;99069.38;;;9.93;100.00
2184;BME280;1098;48.940;8.962;2022-11-02T05:36:37;99061.25;;;9.60;100.00
2184;BME280;1098;48.940;8.962;2022-11-02T05:39:06;99064.34;;;9.77;100.00
2184;BME280;1098;48.940;8.962;2022-11-02T05:41:34;99066.66;;;10.07;100.00
2184;BME280;1098;48.940;8.962;2022-11-02T05:44:03;99064.97;;;10.06;100.00
2184;BME280;1098;48.940;8.962;2022-11-02T05:46:33;99068.53;;;9.93;100.00
2184;BME280;1098;48.940;8.962;2022-11-02T05:49:01;99072.06;;;9.93;100.00
2184;BME280;1098;48.940;8.962;2022-11-02T05:51:29;99080.16;;;10.07;100.00
2184;BME280;1098;48.940;8.962;2022-11-02T05:53:59;99091.53;;;10.55;100.00
2184;BME280;1098;48.940;8.962;2022-11-02T05:56:27;99092.53;;;10.60;100.00
2184;BME280;1098;48.940;8.962;2022-11-02T05:58:55;99083.78;;;10.65;100.00
2184;BME280;1098;48.940;8.962;2022-11-02T06:01:25;99093.09;;;10.82;100.00
2184;BME280;1098;48.940;8.962;2022-11-02T06:03:53;99092.97;;;11.15;100.00
2184;BME280;1098;48.940;8.962;2022-11-02T06:06:21;99087.22;;;11.36;100.00
2184;BME280;1098;48.940;8.962;2022-11-02T06:08:49;99091.41;;;10.88;100.00
2184;BME280;1098;48.940;8.962;2022-11-02T06:11:18;99097.22;;;10.91;100.00
2184;BME280;1098;48.940;8.962;2022-11-02T06:13:48;99104.59;;;10.64;100.00
2184;BME280;1098;48.940;8.962;2022-11-02T06:16:16;99108.09;;;10.72;100.00
2184;BME280;1098;48.940;8.962;2022-11-02T06:18:49;99113.34;;;10.53;100.00
2184;BME280;1098;48.940;8.962;2022-11-02T06:21:17;99113.56;;;10.52;100.00
2184;BME280;1098;48.940;8.962;2022-11-02T06:23:45;99122.09;;;10.49;100.00
2184;BME280;1098;48.940;8.962;2022-11-02T06:26:14;99122.31;;;10.34;100.00
2184;BME280;1098;48.940;8.962;2022-11-02T06:28:43;99135.06;;;10.91;100.00
2184;BME280;1098;48.940;8.962;2022-11-02T06:31:12;99138.47;;;10.60;100.00
2184;BME280;1098;48.940;8.962;2022-11-02T06:33:43;99142.63;;;10.70;100.00
2184;BME280;1098;48.940;8.962;2022-11-02T06:36:11;99131.84;;;10.56;100.00
2184;BME280;1098;48.940;8.962;2022-11-02T06:38:39;99146.38;;;10.62;100.00
2184;BME280;1098;48.940;8.962;2022-11-02T06:41:07;99145.94;;;10.65;100.00
2184;BME280;1098;48.940;8.962;2022-11-02T06:43:37;99153.22;;;10.64;100.00
2184;BME280;1098;48.940;8.962;2022-11-02T06:46:07;99151.78;;;10.68;100.00
2184;BME280;1098;48.940;8.962;2022-11-02T06:48:35;99151.72;;;11.40;100.00
2184;BME280;1098;48.940;8.962;2022-11-02T06:51:03;99164.81;;;10.98;100.00
2184;BME280;1098;48.940;8.962;2022-11-02T06:53:31;99169.16;;;10.99;100.00
2184;BME280;1098;48.940;8.962;2022-11-02T06:55:59;99178.34;;;10.85;100.00
2184;BME280;1098;48.940;8.962;2022-11-02T06:58:28;99180.81;;;10.99;100.00
2184;BME280;1098;48.940;8.962;2022-11-02T07:00:56;99187.00;;;11.13;100.00
2184;BME280;1098;48.940;8.962;2022-11-02T07:03:26;99176.50;;;10.72;100.00
2184;BME280;1098;48.940;8.962;2022-11-02T07:05:54;99180.03;;;10.73;100.00
2184;BME280;1098;48.940;8.962;2022-11-02T07:08:23;99188.25;;;11.11;100.00
2184;BME280;1098;48.940;8.962;2022-11-02T07:10:55;99189.19;;;10.65;100.00
2184;BME280;1098;48.940;8.962;2022-11-02T07:13:23;99199.28;;;11.09;100.00
2184;BME280;1098;48.940;8.962;2022-11-02T07:15:51;99206.72;;;11.27;100.00
2184;BME280;1098;48.940;8.962;2022-11-02T07:18:22;99212.53;;;11.30;100.00
2184;BME280;1098;48.940;8.962;2022-11-02T07:20:52;99210.84;;;11.43;100.00
2184;BME280;1098;48.940;8.962;2022-11-02T07:23:24;99207.38;;;11.67;100.00
2184;BME280;1098;48.940;8.962;2022-11-02T07:25:53;99211.63;;;11.50;100.00
2184;BME280;1098;48.940;8.962;2022-11-02T07:28:21;99217.56;;;11.65;100.00
2184;BME280;1098;48.940;8.962;2022-11-02T07:30:52;99219.22;;;11.79;100.00
2184;BME280;1098;48.940;8.962;2022-11-02T07:33:20;99223.06;;;11.52;100.00
2184;BME280;1098;48.940;8.962;2022-11-02T07:35:48;99216.63;;;11.91;100.00
2184;BME280;1098;48.940;8.962;2022-11-02T07:38:17;99214.28;;;11.63;100.00
2184;BME280;1098;48.940;8.962;2022-11-02T07:40:47;99224.72;;;11.53;100.00
2184;BME280;1098;48.940;8.962;2022-11-02T07:43:15;99211.03;;;11.86;100.00
2184;BME280;1098;48.940;8.962;2022-11-02T07:45:53;99212.66;;;11.93;100.00
2184;BME280;1098;48.940;8.962;2022-11-02T07:48:23;99213.25;;;12.02;100.00
2184;BME280;1098;48.940;8.962;2022-11-02T07:50:51;99216.50;;;12.42;100.00
2184;BME280;1098;48.940;8.962;2022-11-02T07:53:21;99207.16;;;12.07;100.00
2184;BME280;1098;48.940;8.962;2022-11-02T07:55:49;99202.78;;;12.05;100.00
2184;BME280;1098;48.940;8.962;2022-11-02T07:58:17;99204.75;;;12.23;100.00
2184;BME280;1098;48.940;8.962;2022-11-02T08:00:45;99209.72;;;12.01;100.00
2184;BME280;1098;48.940;8.962;2022-11-02T08:03:13;99215.41;;;11.87;100.00
2184;BME280;1098;48.940;8.962;2022-11-02T08:05:41;99206.72;;;12.10;100.00
2184;BME280;1098;48.940;8.962;2022-11-02T08:08:11;99219.75;;;12.26;100.00
2184;BME280;1098;48.940;8.962;2022-11-02T08:10:41;99215.75;;;12.28;100.00
2184;BME280;1098;48.940;8.962;2022-11-02T08:13:10;99213.03;;;12.03;100.00
2184;BME280;1098;48.940;8.962;2022-11-02T08:15:39;99223.72;;;12.48;100.00
2184;BME280;1098;48.940;8.962;2022-11-02T08:18:08;99215.81;;;12.71;100.00
2184;BME280;1098;48.940;8.962;2022-11-02T08:20:39;99200.84;;;12.44;100.00
2184;BME280;1098;48.940;8.962;2022-11-02T08:23:07;99209.31;;;12.72;100.00
2184;BME280;1098;48.940;8.962;2022-11-02T08:25:36;99211.16;;;12.79;100.00
2184;BME280;1098;48.940;8.962;2022-11-02T08:28:06;99211.72;;;12.87;100.00
2184;BME280;1098;48.940;8.962;2022-11-02T08:30:38;99204.53;;;12.93;100.00
2184;BME280;1098;48.940;8.962;2022-11-02T08:33:06;99209.13;;;12.92;100.00
2184;BME280;1098;48.940;8.962;2022-11-02T08:35:36;99215.47;;;12.86;100.00
2184;BME280;1098;48.940;8.962;2022-11-02T08:38:05;99215.47;;;12.86;100.00
2184;BME280;1098;48.940;8.962;2022-11-02T08:40:34;99215.28;;;13.06;100.00
2184;BME280;1098;48.940;8.962;2022-11-02T08:43:03;99211.56;;;13.00;100.00
2184;BME280;1098;48.940;8.962;2022-11-02T08:45:34;99213.88;;;12.97;100.00
2184;BME280;1098;48.940;8.962;2022-11-02T08:48:22;99221.25;;;12.90;100.00
2184;BME280;1098;48.940;8.962;2022-11-02T08:50:50;99215.34;;;12.99;100.00
2184;BME280;1098;48.940;8.962;2022-11-02T08:53:18;99206.72;;;13.27;100.00
2184;BME280;1098;48.940;8.962;2022-11-02T08:55:46;99205.94;;;13.20;100.00
2184;BME280;1098;48.940;8.962;2022-11-02T08:58:14;99208.22;;;13.23;100.00
2184;BME280;1098;48.940;8.962;2022-11-02T09:00:45;99214.47;;;13.24;100.00
2184;BME280;1098;48.940;8.962;2022-11-02T09:03:14;99206.69;;;13.46;100.00
2184;BME280;1098;48.940;8.962;2022-11-02T09:05:47;99210.31;;;13.39;100.00
2184;BME280;1098;48.940;8.962;2022-11-02T09:08:16;99209.09;;;13.35;100.00
2184;BME280;1098;48.940;8.962;2022-11-02T09:10:47;99205.19;;;13.50;100.00
2184;BME280;1098;48.940;8.962;2022-11-02T09:13:16;99208.50;;;13.33;100.00
2184;BME280;1098;48.940;8.962;2022-11-02T09:15:49;99213.59;;;13.60;100.00
2184;BME280;1098;48.940;8.962;2022-11-02T09:18:18;99207.53;;;13.46;100.00
2184;BME280;1098;48.940;8.962;2022-11-02T09:20:46;99215.25;;;13.61;100.00
2184;BME280;1098;48.940;8.962;2022-11-02T09:23:14;99219.13;;;13.35;100.00
2184;BME280;1098;48.940;8.962;2022-11-02T09:25:45;99217.47;;;13.34;100.00
2184;BME280;1098;48.940;8.962;2022-11-02T09:28:15;99208.84;;;13.55;100.00
2184;BME280;1098;48.940;8.962;2022-11-02T09:30:43;99219.22;;;13.47;100.00
2184;BME280;1098;48.940;8.962;2022-11-02T09:33:16;99212.63;;;13.54;100.00
2184;BME280;1098;48.940;8.962;2022-11-02T09:35:46;99226.31;;;13.48;100.00
2184;BME280;1098;48.940;8.962;2022-11-02T09:38:17;99222.69;;;13.35;100.00
2184;BME280;1098;48.940;8.962;2022-11-02T09:40:48;99222.28;;;13.32;100.00
2184;BME280;1098;48.940;8.962;2022-11-02T09:43:25;99226.16;;;13.43;100.00
2184;BME280;1098;48.940;8.962;2022-11-02T09:46:02;99220.72;;;13.43;100.00
2184;BME280;1098;48.940;8.962;2022-11-02T09:48:34;99219.63;;;13.62;100.00
2184;BME280;1098;48.940;8.962;2022-11-02T09:51:05;99225.69;;;13.46;100.00
2184;BME280;1098;48.940;8.962;2022-11-02T09:53:42;99224.19;;;13.50;100.00
2184;BME280;1098;48.940;8.962;2022-11-02T09:56:16;99214.16;;;13.32;100.00
2184;BME280;1098;48.940;8.962;2022-11-02T09:58:47;99226.81;;;13.56;100.00
2184;BME280;1098;48.940;8.962;2022-11-02T10:01:18;99221.00;;;13.53;100.00
2184;BME280;1098;48.940;8.962;2022-11-02T10:04:02;99228.88;;;13.24;100.00
2184;BME280;1098;48.940;8.962;2022-11-02T10:06:37;99234.59;;;13.34;100.00
2184;BME280;1098;48.940;8.962;2022-11-02T10:09:14;99234.81;;;13.51;100.00
2184;BME280;1098;48.940;8.962;2022-11-02T10:11:51;99231.03;;;13.52;100.00
2184;BME280;1098;48.940;8.962;2022-11-02T10:14:27;99227.69;;;13.14;100.00
2184;BME280;1098;48.940;8.962;2022-11-02T10:17:01;99238.06;;;13.23;100.00
2184;BME280;1098;48.940;8.962;2022-11-02T10:19:37;99242.13;;;13.32;100.00
2184;BME280;1098;48.940;8.962;2022-11-02T10:22:10;99255.28;;;13.11;100.00
2184;BME280;1098;48.940;8.962;2022-11-02T10:24:42;99242.91;;;13.15;100.00
2184;BME280;1098;48.940;8.962;2022-11-02T10:27:14;99235.22;;;13.12;100.00
2184;BME280;1098;48.940;8.962;2022-11-02T10:29:47;99233.31;;;13.37;100.00
2184;BME280;1098;48.940;8.962;2022-11-02T10:32:18;99238.88;;;13.60;100.00
2184;BME280;1098;48.940;8.962;2022-11-02T10:34:50;99235.34;;;13.60;100.00
2184;BME280;1098;48.940;8.962;2022-11-02T10:37:33;99229.94;;;13.90;100.00
2184;BME280;1098;48.940;8.962;2022-11-02T10:40:09;99233.38;;;13.67;100.00
2184;BME280;1098;48.940;8.962;2022-11-02T10:42:43;99228.38;;;14.12;100.00
2184;BME280;1098;48.940;8.962;2022-11-02T10:45:34;99230.63;;;13.85;100.00
2184;BME280;1098;48.940;8.962;2022-11-02T10:48:06;99231.59;;;13.91;100.00
2184;BME280;1098;48.940;8.962;2022-11-02T10:50:43;99232.44;;;13.73;100.00
2184;BME280;1098;48.940;8.962;2022-11-02T10:53:14;99234.88;;;13.63;100.00
2184;BME280;1098;48.940;8.962;2022-11-02T10:56:03;99235.47;;;13.95;100.00
2184;BME280;1098;48.940;8.962;2022-11-02T10:58:35;99244.97;;;13.56;100.00
2184;BME280;1098;48.940;8.962;2022-11-02T11:01:05;99242.94;;;13.99;100.00
2184;BME280;1098;48.940;8.962;2022-11-02T11:03:37;99240.66;;;13.85;100.00
2184;BME280;1098;48.940;8.962;2022-11-02T11:06:20;99243.59;;;13.83;100.00
2184;BME280;1098;48.940;8.962;2022-11-02T11:08:49;99229.50;;;14.04;100.00
2184;BME280;1098;48.940;8.962;2022-11-02T11:11:23;99233.22;;;14.22;100.00
2184;BME280;1098;48.940;8.962;2022-11-02T11:13:52;99240.53;;;14.63;100.00
2184;BME280;1098;48.940;8.962;2022-11-02T11:16:42;99244.00;;;14.40;100.00
2184;BME280;1098;48.940;8.962;2022-11-02T11:19:31;99232.91;;;14.30;100.00
2184;BME280;1098;48.940;8.962;2022-11-02T11:22:21;99251.25;;;14.04;100.00
2184;BME280;1098;48.940;8.962;2022-11-02T11:24:52;99245.50;;;14.13;100.00
2184;BME280;1098;48.940;8.962;2022-11-02T11:27:20;99238.41;;;14.53;100.00
2184;BME280;1098;48.940;8.962;2022-11-02T11:29:51;99241.59;;;14.50;100.00
2184;BME280;1098;48.940;8.962;2022-11-02T11:32:20;99234.53;;;15.07;100.00
2184;BME280;1098;48.940;8.962;2022-11-02T11:34:56;99236.31;;;14.90;100.00
2184;BME280;1098;48.940;8.962;2022-11-02T11:37:26;99231.09;;;14.65;100.00
2184;BME280;1098;48.940;8.962;2022-11-02T11:39:56;99228.38;;;14.54;100.00
2184;BME280;1098;48.940;8.962;2022-11-02T11:42:25;99224.63;;;14.36;100.00
2184;BME280;1098;48.940;8.962;2022-11-02T11:44:59;99228.38;;;14.65;100.00
2184;BME280;1098;48.940;8.962;2022-11-02T11:47:29;99224.22;;;14.51;100.00
2184;BME280;1098;48.940;8.962;2022-11-02T11:49:59;99231.69;;;15.02;100.00
2184;BME280;1098;48.940;8.962;2022-11-02T11:52:41;99221.59;;;15.38;100.00
2184;BME280;1098;48.940;8.962;2022-11-02T11:55:20;99224.94;;;15.05;100.00
2184;BME280;1098;48.940;8.962;2022-11-02T11:58:03;99225.63;;;15.35;100.00
2184;BME280;1098;48.940;8.962;2022-11-02T12:00:32;99198.56;;;15.05;100.00
2184;BME280;1098;48.940;8.962;2022-11-02T12:03:01;99216.47;;;15.41;100.00
2184;BME280;1098;48.940;8.962;2022-11-02T12:05:46;99218.69;;;15.16;100.00
2184;BME280;1098;48.940;8.962;2022-11-02T12:08:28;99214.81;;;15.52;100.00
2184;BME280;1098;48.940;8.962;2022-11-02T12:11:04;99202.38;;;15.44;100.00
2184;BME280;1098;48.940;8.962;2022-11-02T12:13:50;99198.56;;;15.17;100.00
2184;BME280;1098;48.940;8.962;2022-11-02T12:16:24;99197.75;;;15.45;100.00
2184;BME280;1098;48.940;8.962;2022-11-02T12:19:02;99189.19;;;15.76;100.00
2184;BME280;1098;48.940;8.962;2022-11-02T12:21:37;99185.84;;;15.34;100.00
2184;BME280;1098;48.940;8.962;2022-11-02T12:24:14;99190.00;;;15.25;100.00
2184;BME280;1098;48.940;8.962;2022-11-02T12:26:49;99199.66;;;15.44;100.00
2184;BME280;1098;48.940;8.962;2022-11-02T12:29:29;99201.66;;;15.49;100.00
2184;BME280;1098;48.940;8.962;2022-11-02T12:32:04;99197.13;;;15.66;100.00
2184;BME280;1098;48.940;8.962;2022-11-02T12:34:41;99209.97;;;15.42;100.00
2184;BME280;1098;48.940;8.962;2022-11-02T12:37:37;99206.16;;;15.43;100.00
2184;BME280;1098;48.940;8.962;2022-11-02T12:40:23;99203.31;;;15.90;100.00
2184;BME280;1098;48.940;8.962;2022-11-02T12:43:02;99195.00;;;15.68;100.00
2184;BME280;1098;48.940;8.962;2022-11-02T12:45:37;99192.47;;;15.78;100.00
2184;BME280;1098;48.940;8.962;2022-11-02T12:48:08;99195.81;;;15.69;100.00
2184;BME280;1098;48.940;8.962;2022-11-02T12:50:44;99202.97;;;15.46;100.00
2184;BME280;1098;48.940;8.962;2022-11-02T12:53:30;99205.44;;;15.60;100.00
2184;BME280;1098;48.940;8.962;2022-11-02T12:56:03;99195.41;;;16.05;100.00
2184;BME280;1098;48.940;8.962;2022-11-02T12:58:33;99192.03;;;15.70;100.00
2184;BME280;1098;48.940;8.962;2022-11-02T13:01:04;99185.94;;;15.79;100.00
2184;BME280;1098;48.940;8.962;2022-11-02T13:03:43;99188.72;;;15.68;100.00
2184;BME280;1098;48.940;8.962;2022-11-02T13:06:16;99184.38;;;15.43;100.00
2184;BME280;1098;48.940;8.962;2022-11-02T13:08:45;99183.84;;;15.70;100.00
2184;BME280;1098;48.940;8.962;2022-11-02T13:11:19;99187.16;;;15.72;100.00
2184;BME280;1098;48.940;8.962;2022-11-02T13:13:50;99181.53;;;15.50;100.00
2184;BME280;1098;48.940;8.962;2022-11-02T13:16:19;99175.22;;;15.73;100.00
2184;BME280;1098;48.940;8.962;2022-11-02T13:18:51;99176.31;;;15.48;100.00
2184;BME280;1098;48.940;8.962;2022-11-02T13:21:22;99165.91;;;16.02;100.00
2184;BME280;1098;48.940;8.962;2022-11-02T13:23:55;99163.06;;;15.80;100.00
2184;BME280;1098;48.940;8.962;2022-11-02T13:26:26;99169.34;;;15.81;100.00
2184;BME280;1098;48.940;8.962;2022-11-02T13:28:56;99169.41;;;16.14;100.00
2184;BME280;1098;48.940;8.962;2022-11-02T13:31:27;99176.38;;;15.77;100.00
2184;BME280;1098;48.940;8.962;2022-11-02T13:33:57;99165.63;;;15.70;100.00
2184;BME280;1098;48.940;8.962;2022-11-02T13:36:26;99158.16;;;15.94;100.00
2184;BME280;1098;48.940;8.962;2022-11-02T13:38:56;99165.84;;;15.69;100.00